Time;durP1;ratioP1;P1;durP2;ratioP2;P2;SDS_P1;SDS_P2;PMS_P1;PMS_P2;Temp;Humidity;BMP_temperature;BMP_pressure;BME280_temperature;BME280_humidity;BME280_pressure;Samples;Min_cycle;Max_cycle;Signal;HPM_P1;HPM_P2
2021/03/07 00:03:00;;;;;;;9.88;5.30;;;;;;;;;;6218279;28;20037;-70
2021/03/07 00:06:02;;;;;;;10.07;5.38;;;;;;;;;;6239641;28;20182;-69
2021/03/07 00:09:03;;;;;;;8.07;5.00;;;;;;;;;;6238715;28;20161;-70
2021/03/07 00:12:04;;;;;;;8.57;5.38;;;;;;;;;;6240598;28;20049;-68
2021/03/07 00:15:09;;;;;;;9.60;4.97;;;;;;;;;;6243180;28;20045;-71
2021/03/07 00:18:10;;;;;;;8.43;5.20;;;;;;;;;;6240596;28;20081;-70
2021/03/07 00:21:11;;;;;;;9.60;5.57;;;;;;;;;;6241355;28;20555;-71
2021/03/07 00:24:12;;;;;;;7.68;5.35;;;;;;;;;;6239465;28;20041;-70
2021/03/07 00:27:13;;;;;;;9.10;5.28;;;;;;;;;;6235988;28;20091;-70
2021/03/07 00:30:17;;;;;;;8.95;5.07;;;;;;;;;;6239701;28;20492;-72
2021/03/07 00:33:18;;;;;;;9.35;5.43;;;;;;;;;;6247011;28;20582;-71
2021/03/07 00:36:19;;;;;;;7.28;5.30;;;;;;;;;;6240906;28;20045;-71
2021/03/07 00:39:21;;;;;;;8.75;5.10;;;;;;;;;;6238932;28;20514;-70
2021/03/07 00:42:22;;;;;;;7.88;4.97;;;;;;;;;;6242746;28;20568;-70
2021/03/07 00:45:24;;;;;;;11.90;6.15;;;;;;;;;;6247370;28;20546;-72
2021/03/07 00:48:25;;;;;;;9.73;5.22;;;;;;;;;;6233204;28;20487;-70
2021/03/07 00:51:26;;;;;;;13.40;6.20;;;;;;;;;;6241340;28;20060;-71
2021/03/07 00:54:27;;;;;;;11.13;6.05;;;;;;;;;;6240499;28;20144;-70
2021/03/07 00:57:28;;;;;;;9.13;5.35;;;;;;;;;;6238617;28;20133;-70
2021/03/07 01:00:30;;;;;;;9.32;5.68;;;;;;;;;;6238241;28;20140;-70
2021/03/07 01:03:31;;;;;;;9.65;5.45;;;;;;;;;;6237139;28;20069;-71
2021/03/07 01:06:32;;;;;;;9.68;6.07;;;;;;;;;;6230257;28;20613;-70
2021/03/07 01:09:33;;;;;;;7.00;5.43;;;;;;;;;;6232967;28;20080;-70
2021/03/07 01:12:35;;;;;;;11.70;5.47;;;;;;;;;;6237497;28;20046;-72
2021/03/07 01:15:37;;;;;;;7.85;5.70;;;;;;;;;;6240750;28;20072;-72
2021/03/07 01:18:38;;;;;;;14.07;6.68;;;;;;;;;;6241136;28;20349;-71
2021/03/07 01:21:39;;;;;;;7.78;5.93;;;;;;;;;;6235863;28;20160;-71
2021/03/07 01:24:40;;;;;;;7.25;5.53;;;;;;;;;;6226832;28;20477;-71
2021/03/07 01:27:41;;;;;;;9.43;5.68;;;;;;;;;;6237064;28;20050;-71
2021/03/07 01:30:44;;;;;;;11.73;5.47;;;;;;;;;;6240707;28;20087;-73
2021/03/07 01:33:45;;;;;;;10.57;5.90;;;;;;;;;;6243174;28;20100;-71
2021/03/07 01:36:46;;;;;;;9.80;5.55;;;;;;;;;;6234598;28;20527;-70
2021/03/07 01:39:47;;;;;;;10.10;6.00;;;;;;;;;;6237542;28;20048;-71
2021/03/07 01:42:48;;;;;;;13.30;6.15;;;;;;;;;;6240770;28;20058;-70
2021/03/07 01:45:51;;;;;;;8.15;5.53;;;;;;;;;;6231011;28;20145;-72
2021/03/07 01:48:59;;;;;;;10.15;6.13;;;;;;;;;;6244676;28;20057;-71
2021/03/07 01:52:00;;;;;;;15.05;6.13;;;;;;;;;;6239420;28;20119;-70
2021/03/07 01:55:01;;;;;;;10.30;5.70;;;;;;;;;;6239363;28;20037;-70
2021/03/07 01:58:04;;;;;;;8.95;5.85;;;;;;;;;;6236719;28;20492;-70
2021/03/07 02:01:06;;;;;;;7.38;5.20;;;;;;;;;;6234413;28;20053;-71
2021/03/07 02:04:16;;;;;;;11.55;5.97;;;;;;;;;;6548448;23;20056;-75
2021/03/07 02:10:39;;;;;;;7.05;5.18;;;;;;;;;;6305298;28;20048;-75
2021/03/07 02:13:41;;;;;;;7.45;5.00;;;;;;;;;;6320080;28;20059;-75
2021/03/07 02:21:17;;;;;;;9.85;5.70;;;;;;;;;;6288281;28;20045;-74
2021/03/07 02:24:40;;;;;;;8.50;5.65;;;;;;;;;;6301668;28;20087;-75
2021/03/07 02:27:42;;;;;;;9.68;5.30;;;;;;;;;;6325135;28;20066;-75
2021/03/07 02:30:43;;;;;;;7.18;4.85;;;;;;;;;;6321792;28;20052;-75
2021/03/07 02:41:15;;;;;;;7.38;4.90;;;;;;;;;;6305624;28;20477;-75
2021/03/07 02:44:41;;;;;;;;;;;;;;;;;;6328677;28;20054;-75
2021/03/07 02:59:44;;;;;;;7.05;4.70;;;;;;;;;;6186011;28;20065;-74
2021/03/07 03:02:46;;;;;;;7.55;4.63;;;;;;;;;;6261328;28;20058;-75
2021/03/07 03:05:48;;;;;;;7.30;4.22;;;;;;;;;;6320892;28;20044;-74
2021/03/07 03:08:54;;;;;;;9.32;4.28;;;;;;;;;;6315477;28;20102;-75
2021/03/07 03:19:26;;;;;;;6.28;4.43;;;;;;;;;;6215052;28;20053;-75
2021/03/07 03:22:32;;;;;;;7.05;4.78;;;;;;;;;;6318270;28;20059;-75
2021/03/07 03:26:00;;;;;;;9.07;4.82;;;;;;;;;;6327643;28;20056;-75
2021/03/07 03:29:24;;;;;;;;;;;;;;;;;;;;;
2021/03/07 03:33:19;;;;;;;8.07;4.45;;;;;;;;;;6307631;28;20052;-74
2021/03/07 03:48:31;;;;;;;8.85;5.43;;;;;;;;;;6265876;27;20039;-76
2021/03/07 03:59:57;;;;;;;8.25;4.78;;;;;;;;;;6220037;28;20144;-76
2021/03/07 04:03:01;;;;;;;8.95;4.75;;;;;;;;;;6290624;28;20311;-74
2021/03/07 04:06:06;;;;;;;;;;;;;;;;;;6331364;28;20040;-74
2021/03/07 04:09:09;;;;;;;8.23;5.47;;;;;;;;;;6327101;28;19942;-74
2021/03/07 04:12:13;;;;;;;8.05;5.57;;;;;;;;;;6326831;28;20379;-75
2021/03/07 04:15:27;;;;;;;;;;;;;;;;;;;;;
2021/03/07 04:30:36;;;;;;;12.15;6.40;;;;;;;;;;6149280;28;20508;-75
2021/03/07 04:33:45;;;;;;;8.90;5.82;;;;;;;;;;6223817;28;20072;-75
2021/03/07 04:37:05;;;;;;;11.07;6.93;;;;;;;;;;6174780;28;20057;-75
2021/03/07 04:40:08;;;;;;;10.27;6.43;;;;;;;;;;6204977;28;20053;-75
2021/03/07 04:47:38;;;;;;;12.68;6.47;;;;;;;;;;6322950;28;20032;-75
2021/03/07 04:50:47;;;;;;;11.40;6.80;;;;;;;;;;6309377;28;20051;-75
2021/03/07 04:54:19;;;;;;;10.77;7.05;;;;;;;;;;6329505;28;20059;-75
2021/03/07 04:58:10;;;;;;;11.82;7.45;;;;;;;;;;6192376;28;20054;-75
2021/03/07 05:08:20;;;;;;;13.63;7.45;;;;;;;;;;6189121;28;20117;-75
2021/03/07 05:11:22;;;;;;;14.60;6.82;;;;;;;;;;6226764;28;20045;-75
2021/03/07 05:14:31;;;;;;;11.45;7.57;;;;;;;;;;6302289;28;20142;-75
2021/03/07 05:21:51;;;;;;;9.25;6.78;;;;;;;;;;6239343;28;20414;-76
2021/03/07 05:24:53;;;;;;;11.80;6.90;;;;;;;;;;6325872;28;20065;-75
2021/03/07 05:32:01;;;;;;;10.93;6.60;;;;;;;;;;6223346;28;20064;-75
2021/03/07 05:42:53;;;;;;;12.38;7.30;;;;;;;;;;6097076;29;20040;-75
2021/03/07 05:46:04;;;;;;;13.05;7.13;;;;;;;;;;6279568;28;20036;-75
2021/03/07 05:49:12;;;;;;;14.70;7.75;;;;;;;;;;6328019;28;20055;-75
2021/03/07 05:52:14;;;;;;;10.15;7.07;;;;;;;;;;6314616;28;20040;-75
2021/03/07 05:55:22;;;;;;;12.05;6.88;;;;;;;;;;6325134;28;20043;-75
2021/03/07 06:18:21;;;;;;;13.05;7.53;;;;;;;;;;6224692;28;20038;-75
2021/03/07 06:21:30;;;;;;;12.65;7.00;;;;;;;;;;6309473;28;20131;-75
2021/03/07 06:24:35;;;;;;;10.50;6.80;;;;;;;;;;6325125;28;20059;-75
2021/03/07 06:27:37;;;;;;;13.43;7.97;;;;;;;;;;6328452;28;20048;-75
2021/03/07 06:30:38;;;;;;;12.27;6.75;;;;;;;;;;6325034;28;20076;-75
2021/03/07 06:33:40;;;;;;;12.68;6.72;;;;;;;;;;6327230;28;20052;-75
2021/03/07 06:36:41;;;;;;;11.18;7.22;;;;;;;;;;6328443;28;20047;-75
2021/03/07 06:39:43;;;;;;;15.00;7.28;;;;;;;;;;6329794;28;20051;-75
2021/03/07 06:42:44;;;;;;;9.95;7.57;;;;;;;;;;6326278;28;20113;-75
2021/03/07 06:45:45;;;;;;;12.63;7.50;;;;;;;;;;6325353;28;20661;-76
2021/03/07 06:48:47;;;;;;;10.77;7.07;;;;;;;;;;6323827;28;20048;-75
2021/03/07 06:51:49;;;;;;;13.02;7.85;;;;;;;;;;6333619;28;20067;-75
2021/03/07 06:55:02;;;;;;;10.68;7.30;;;;;;;;;;6331426;28;20048;-75
2021/03/07 06:58:14;;;;;;;9.52;6.95;;;;;;;;;;6328241;28;20083;-75
2021/03/07 07:01:16;;;;;;;11.50;7.70;;;;;;;;;;6327841;28;20052;-75
2021/03/07 07:04:19;;;;;;;10.90;8.00;;;;;;;;;;6324854;28;20146;-75
2021/03/07 07:07:21;;;;;;;15.70;8.18;;;;;;;;;;6327931;28;20495;-76
2021/03/07 07:10:23;;;;;;;11.98;7.53;;;;;;;;;;6323358;28;20071;-75
2021/03/07 07:13:25;;;;;;;12.18;8.68;;;;;;;;;;6322050;28;20479;-75
2021/03/07 07:16:26;;;;;;;13.80;8.00;;;;;;;;;;6325727;28;20067;-75
2021/03/07 07:19:28;;;;;;;15.73;8.65;;;;;;;;;;6322657;28;20488;-75
2021/03/07 07:22:29;;;;;;;14.25;8.52;;;;;;;;;;6321435;28;20059;-75
2021/03/07 07:25:31;;;;;;;11.77;8.65;;;;;;;;;;6326755;28;20048;-75
2021/03/07 07:28:33;;;;;;;13.45;8.02;;;;;;;;;;6326279;28;20044;-75
2021/03/07 07:31:37;;;;;;;14.50;8.63;;;;;;;;;;6320788;28;20051;-75
2021/03/07 07:34:44;;;;;;;15.23;8.30;;;;;;;;;;6323175;28;20883;-75
2021/03/07 07:37:48;;;;;;;12.50;8.27;;;;;;;;;;6324620;28;20083;-75
2021/03/07 07:40:50;;;;;;;12.15;7.38;;;;;;;;;;6316803;28;20048;-75
2021/03/07 07:43:51;;;;;;;15.80;7.57;;;;;;;;;;6320960;28;20052;-76
2021/03/07 07:46:55;;;;;;;13.82;7.30;;;;;;;;;;6324280;28;20055;-75
2021/03/07 07:49:57;;;;;;;10.90;7.68;;;;;;;;;;6324786;28;20052;-75
2021/03/07 07:52:59;;;;;;;12.50;7.30;;;;;;;;;;6327310;28;20044;-75
2021/03/07 07:56:00;;;;;;;9.52;6.55;;;;;;;;;;6329389;28;20052;-75
2021/03/07 07:59:02;;;;;;;9.30;6.28;;;;;;;;;;6325418;28;20236;-75
2021/03/07 08:02:03;;;;;;;9.52;6.20;;;;;;;;;;6315981;28;20052;-75
2021/03/07 08:05:45;;;;;;;10.10;6.50;;;;;;;;;;6329814;28;20043;-76
2021/03/07 08:08:49;;;;;;;10.95;7.43;;;;;;;;;;6325418;28;20040;-76
2021/03/07 08:11:54;;;;;;;9.45;6.50;;;;;;;;;;6334305;28;20070;-76
2021/03/07 08:15:56;;;;;;;12.15;7.18;;;;;;;;;;6327962;28;20055;-76
2021/03/07 08:19:00;;;;;;;9.90;7.20;;;;;;;;;;6279549;28;20044;-77
2021/03/07 08:22:18;;;;;;;14.48;7.45;;;;;;;;;;6313108;28;20468;-75
2021/03/07 08:25:23;;;;;;;9.48;6.47;;;;;;;;;;6330580;28;20044;-76
2021/03/07 08:28:41;;;;;;;13.55;7.25;;;;;;;;;;6328826;28;20040;-75
2021/03/07 08:31:43;;;;;;;13.88;7.38;;;;;;;;;;6326924;28;20081;-75
2021/03/07 08:34:45;;;;;;;8.30;5.95;;;;;;;;;;6326152;28;20054;-75
2021/03/07 08:38:13;;;;;;;10.98;6.55;;;;;;;;;;6327240;28;20735;-75
2021/03/07 08:41:19;;;;;;;10.32;6.57;;;;;;;;;;6326581;28;20139;-76
2021/03/07 08:44:21;;;;;;;9.93;6.35;;;;;;;;;;6325203;28;20575;-75
2021/03/07 08:47:52;;;;;;;9.40;6.20;;;;;;;;;;6327779;28;20044;-74
2021/03/07 08:50:54;;;;;;;8.55;6.07;;;;;;;;;;6326122;28;20078;-75
2021/03/07 08:54:02;;;;;;;9.23;6.15;;;;;;;;;;6326930;28;20084;-75
2021/03/07 08:57:09;;;;;;;8.60;6.85;;;;;;;;;;6320553;28;20530;-75
2021/03/07 09:00:11;;;;;;;11.23;6.60;;;;;;;;;;6319925;28;20066;-75
2021/03/07 09:03:13;;;;;;;9.98;6.80;;;;;;;;;;6310466;28;20078;-75
2021/03/07 09:06:15;;;;;;;10.00;7.07;;;;;;;;;;6321675;28;20093;-75
2021/03/07 09:09:18;;;;;;;9.43;6.15;;;;;;;;;;6322699;28;20052;-74
2021/03/07 09:12:23;;;;;;;8.20;5.32;;;;;;;;;;6316946;28;20394;-75
2021/03/07 09:15:24;;;;;;;13.43;6.13;;;;;;;;;;6311031;28;20040;-75
2021/03/07 09:18:26;;;;;;;7.95;5.63;;;;;;;;;;6313004;28;20044;-75
2021/03/07 09:21:28;;;;;;;9.25;5.75;;;;;;;;;;6312626;28;20125;-75
2021/03/07 09:24:30;;;;;;;8.07;6.35;;;;;;;;;;6310392;28;20044;-76
2021/03/07 09:27:33;;;;;;;8.75;6.15;;;;;;;;;;6311193;28;20056;-76
2021/03/07 09:30:34;;;;;;;9.13;5.73;;;;;;;;;;6311404;28;20127;-76
2021/03/07 09:33:36;;;;;;;8.57;6.25;;;;;;;;;;6312150;28;20470;-76
2021/03/07 09:36:38;;;;;;;8.63;5.22;;;;;;;;;;6311779;28;20138;-76
2021/03/07 09:39:46;;;;;;;8.95;6.43;;;;;;;;;;6313683;28;20071;-76
2021/03/07 09:42:54;;;;;;;6.90;5.72;;;;;;;;;;6312751;28;20495;-76
2021/03/07 09:45:55;;;;;;;9.38;6.47;;;;;;;;;;6312281;28;20071;-78
2021/03/07 09:48:59;;;;;;;11.43;7.05;;;;;;;;;;6311985;28;20052;-76
2021/03/07 09:52:01;;;;;;;9.80;6.57;;;;;;;;;;6313622;28;20075;-76
2021/03/07 09:55:04;;;;;;;11.13;7.22;;;;;;;;;;6311507;28;20060;-76
2021/03/07 09:58:06;;;;;;;11.35;6.35;;;;;;;;;;6312697;28;20051;-76
2021/03/07 10:01:07;;;;;;;8.57;6.35;;;;;;;;;;6311479;28;20494;-77
2021/03/07 10:04:33;;;;;;;8.32;6.03;;;;;;;;;;6312356;28;20467;-77
2021/03/07 10:07:34;;;;;;;9.40;6.15;;;;;;;;;;6313512;28;20068;-76
2021/03/07 10:10:36;;;;;;;9.27;6.25;;;;;;;;;;6313541;28;20105;-77
2021/03/07 10:13:38;;;;;;;8.80;6.28;;;;;;;;;;6313550;28;20052;-76
2021/03/07 10:16:39;;;;;;;12.98;7.07;;;;;;;;;;6309162;28;20056;-76
2021/03/07 10:19:40;;;;;;;10.15;6.13;;;;;;;;;;6311851;28;20044;-77
2021/03/07 10:22:43;;;;;;;9.77;6.72;;;;;;;;;;6316799;28;20067;-76
2021/03/07 10:25:48;;;;;;;11.13;6.50;;;;;;;;;;6318345;28;20089;-77
2021/03/07 10:28:49;;;;;;;10.23;6.82;;;;;;;;;;6315553;28;20044;-76
2021/03/07 10:32:09;;;;;;;9.52;6.07;;;;;;;;;;6313309;28;20135;-77
2021/03/07 10:35:11;;;;;;;9.02;6.35;;;;;;;;;;6314310;28;20040;-77
2021/03/07 10:38:19;;;;;;;8.02;5.82;;;;;;;;;;6316817;28;20097;-77
2021/03/07 10:41:24;;;;;;;7.93;6.60;;;;;;;;;;6317841;28;20048;-77
2021/03/07 10:44:25;;;;;;;10.77;7.55;;;;;;;;;;6315990;28;20044;-76
2021/03/07 10:47:26;;;;;;;8.85;6.50;;;;;;;;;;6316263;28;20078;-76
2021/03/07 10:50:28;;;;;;;10.48;7.00;;;;;;;;;;6320889;28;20063;-76
2021/03/07 10:53:29;;;;;;;8.18;7.32;;;;;;;;;;6319825;28;20075;-77
2021/03/07 10:56:32;;;;;;;11.23;7.30;;;;;;;;;;6319985;28;20517;-76
2021/03/07 10:59:33;;;;;;;12.77;8.20;;;;;;;;;;6317007;28;20402;-76
2021/03/07 11:02:35;;;;;;;14.93;7.82;;;;;;;;;;6317354;28;20048;-75
2021/03/07 11:05:37;;;;;;;8.80;7.10;;;;;;;;;;6316945;28;20047;-76
2021/03/07 11:08:38;;;;;;;8.90;7.43;;;;;;;;;;6316178;28;20047;-76
2021/03/07 11:11:43;;;;;;;10.82;7.68;;;;;;;;;;6311844;28;20053;-76
2021/03/07 11:14:44;;;;;;;8.50;7.60;;;;;;;;;;6314593;28;20516;-80
2021/03/07 11:17:45;;;;;;;9.23;7.07;;;;;;;;;;6308653;28;20055;-76
2021/03/07 11:20:47;;;;;;;8.70;7.25;;;;;;;;;;6314049;28;20047;-77
2021/03/07 11:23:49;;;;;;;7.97;6.78;;;;;;;;;;6317785;28;20052;-76
2021/03/07 11:26:51;;;;;;;8.45;7.10;;;;;;;;;;6312301;28;20048;-77
2021/03/07 11:29:52;;;;;;;9.60;7.80;;;;;;;;;;6302691;28;20048;-76
2021/03/07 11:32:53;;;;;;;9.10;8.20;;;;;;;;;;6311289;28;20052;-76
2021/03/07 11:35:55;;;;;;;9.23;8.18;;;;;;;;;;6312074;28;20043;-76
2021/03/07 11:38:56;;;;;;;9.23;8.32;;;;;;;;;;6313143;28;20787;-77
2021/03/07 11:41:58;;;;;;;9.40;8.40;;;;;;;;;;6317939;28;20047;-76
2021/03/07 11:45:02;;;;;;;9.40;8.40;;;;;;;;;;6312202;28;20059;-77
2021/03/07 11:48:04;;;;;;;8.95;8.05;;;;;;;;;;6311880;28;20056;-76
2021/03/07 11:51:05;;;;;;;9.30;7.47;;;;;;;;;;6308634;28;20052;-76
2021/03/07 11:54:07;;;;;;;9.30;8.40;;;;;;;;;;6310842;28;20047;-76
2021/03/07 11:57:09;;;;;;;9.27;8.27;;;;;;;;;;6313344;28;20170;-75
2021/03/07 12:00:11;;;;;;;9.68;8.68;;;;;;;;;;6312623;28;20057;-74
2021/03/07 12:03:12;;;;;;;9.48;8.18;;;;;;;;;;6311399;28;20039;-74
2021/03/07 12:06:14;;;;;;;8.80;7.60;;;;;;;;;;6313023;28;20047;-74
2021/03/07 12:09:15;;;;;;;9.65;7.78;;;;;;;;;;6316477;28;20067;-74
2021/03/07 12:12:17;;;;;;;9.95;8.50;;;;;;;;;;6316843;28;20429;-74
2021/03/07 12:15:19;;;;;;;12.23;7.93;;;;;;;;;;6317619;28;20055;-74
2021/03/07 12:18:20;;;;;;;9.43;8.20;;;;;;;;;;6312103;28;20070;-76
2021/03/07 12:21:21;;;;;;;8.60;7.70;;;;;;;;;;6311870;28;20484;-75
2021/03/07 12:24:23;;;;;;;9.23;8.32;;;;;;;;;;6313850;28;20368;-76
2021/03/07 12:27:25;;;;;;;9.80;7.80;;;;;;;;;;6321425;28;20533;-75
2021/03/07 12:30:28;;;;;;;8.80;7.60;;;;;;;;;;6316632;28;20481;-78
2021/03/07 12:33:29;;;;;;;;;;;;;;;;;;6318040;28;20044;-76
2021/03/07 12:36:34;;;;;;;8.45;7.65;;;;;;;;;;6318430;28;19954;-78
2021/03/07 12:39:35;;;;;;;8.68;7.88;;;;;;;;;;6321009;28;20107;-78
2021/03/07 12:42:37;;;;;;;8.77;7.85;;;;;;;;;;6319489;28;20467;-77
2021/03/07 12:45:38;;;;;;;9.23;7.53;;;;;;;;;;6315158;28;20052;-77
2021/03/07 12:48:42;;;;;;;8.57;7.78;;;;;;;;;;6312899;28;20490;-76
2021/03/07 12:51:44;;;;;;;8.57;7.80;;;;;;;;;;6315134;28;20625;-77
2021/03/07 12:54:45;;;;;;;8.85;7.85;;;;;;;;;;6314707;28;20071;-77
2021/03/07 12:57:47;;;;;;;17.90;7.88;;;;;;;;;;6314092;28;20139;-76
2021/03/07 13:00:49;;;;;;;8.60;7.80;;;;;;;;;;6316354;28;20537;-76
2021/03/07 13:03:50;;;;;;;9.15;8.25;;;;;;;;;;6320664;28;20436;-76
2021/03/07 13:06:51;;;;;;;9.05;8.00;;;;;;;;;;6320810;28;20046;-76
2021/03/07 13:09:53;;;;;;;8.80;7.88;;;;;;;;;;6323305;28;20071;-76
2021/03/07 13:12:55;;;;;;;8.63;7.72;;;;;;;;;;6320144;28;20714;-77
2021/03/07 13:15:56;;;;;;;9.45;7.93;;;;;;;;;;6328186;28;20559;-76
2021/03/07 13:18:57;;;;;;;8.75;7.85;;;;;;;;;;6325721;28;20079;-77
2021/03/07 13:22:02;;;;;;;8.95;7.97;;;;;;;;;;6328664;28;20072;-76
2021/03/07 13:25:05;;;;;;;9.13;7.97;;;;;;;;;;6320697;28;20056;-77
2021/03/07 13:28:07;;;;;;;11.50;8.60;;;;;;;;;;6323502;28;20077;-76
2021/03/07 13:31:09;;;;;;;10.17;8.30;;;;;;;;;;6320342;28;20058;-76
2021/03/07 13:34:10;;;;;;;9.02;7.93;;;;;;;;;;6321310;28;20050;-76
2021/03/07 13:37:12;;;;;;;11.65;8.25;;;;;;;;;;6317794;28;20540;-77
2021/03/07 13:40:14;;;;;;;9.60;8.50;;;;;;;;;;6323171;28;20086;-77
2021/03/07 13:43:16;;;;;;;13.20;7.77;;;;;;;;;;6319665;28;20482;-77
2021/03/07 13:46:18;;;;;;;9.43;8.43;;;;;;;;;;6320106;28;20071;-78
2021/03/07 13:49:19;;;;;;;9.43;8.00;;;;;;;;;;6325702;28;20083;-77
2021/03/07 13:52:20;;;;;;;9.75;7.97;;;;;;;;;;6315435;28;20055;-77
2021/03/07 13:55:22;;;;;;;8.93;7.93;;;;;;;;;;6318930;28;20108;-76
2021/03/07 13:58:30;;;;;;;10.30;8.35;;;;;;;;;;6306794;28;20060;-76
2021/03/07 14:01:32;;;;;;;8.82;8.00;;;;;;;;;;6308922;28;20055;-76
2021/03/07 14:04:41;;;;;;;8.82;7.55;;;;;;;;;;6319965;28;20139;-75
2021/03/07 14:07:42;;;;;;;9.93;7.88;;;;;;;;;;6316590;28;20804;-75
2021/03/07 14:10:43;;;;;;;9.68;8.00;;;;;;;;;;6317588;28;20047;-75
2021/03/07 14:13:45;;;;;;;9.48;8.43;;;;;;;;;;6320861;28;20050;-75
2021/03/07 14:16:47;;;;;;;12.30;8.90;;;;;;;;;;6320345;28;20070;-75
2021/03/07 14:19:57;;;;;;;10.68;8.50;;;;;;;;;;6320849;28;20064;-75
2021/03/07 14:22:58;;;;;;;12.30;9.00;;;;;;;;;;6318656;28;20059;-75
2021/03/07 14:25:59;;;;;;;11.50;8.45;;;;;;;;;;6315641;28;20125;-75
2021/03/07 14:29:02;;;;;;;19.70;12.60;;;;;;;;;;6318384;28;20451;-75
2021/03/07 14:32:03;;;;;;;11.95;9.50;;;;;;;;;;6314729;28;20055;-75
2021/03/07 14:35:33;;;;;;;10.63;9.32;;;;;;;;;;6318525;28;20101;-76
2021/03/07 14:38:43;;;;;;;10.57;8.88;;;;;;;;;;6313466;28;20032;-76
2021/03/07 14:48:53;;;;;;;10.07;8.63;;;;;;;;;;6308717;28;20060;-77
2021/03/07 14:51:58;;;;;;;10.30;8.23;;;;;;;;;;6311259;28;20052;-76
2021/03/07 14:55:14;;;;;;;10.85;9.63;;;;;;;;;;6308212;28;20040;-76
2021/03/07 15:01:47;;;;;;;10.05;9.05;;;;;;;;;;6316105;28;20079;-76
2021/03/07 15:04:52;;;;;;;9.27;7.95;;;;;;;;;;6294682;28;20109;-77
2021/03/07 15:07:55;;;;;;;12.32;8.90;;;;;;;;;;6316548;28;21049;-77
2021/03/07 15:10:57;;;;;;;10.02;8.63;;;;;;;;;;6306696;28;20056;-75
2021/03/07 15:14:02;;;;;;;11.85;9.07;;;;;;;;;;6311267;28;20082;-76
2021/03/07 15:17:34;;;;;;;10.65;8.82;;;;;;;;;;6308165;28;20129;-77
2021/03/07 15:24:23;;;;;;;9.60;8.52;;;;;;;;;;6232377;28;20513;-76
2021/03/07 15:27:24;;;;;;;10.02;9.02;;;;;;;;;;6304629;28;20075;-77
2021/03/07 15:30:26;;;;;;;9.25;8.27;;;;;;;;;;6307358;28;20076;-77
2021/03/07 15:33:28;;;;;;;10.73;8.68;;;;;;;;;;6309034;28;20080;-76
2021/03/07 15:36:29;;;;;;;9.98;8.98;;;;;;;;;;6309580;28;20040;-76
2021/03/07 15:39:32;;;;;;;10.52;9.40;;;;;;;;;;6315088;28;20094;-76
2021/03/07 15:42:34;;;;;;;11.10;9.13;;;;;;;;;;6308011;28;20417;-76
2021/03/07 15:45:35;;;;;;;13.30;9.85;;;;;;;;;;6309462;28;20056;-76
2021/03/07 15:48:42;;;;;;;10.68;9.57;;;;;;;;;;6310977;28;20047;-76
2021/03/07 15:51:44;;;;;;;10.23;9.23;;;;;;;;;;6317123;28;20081;-76
2021/03/07 15:54:46;;;;;;;11.93;8.60;;;;;;;;;;6307076;28;20090;-76
2021/03/07 15:57:47;;;;;;;9.63;8.63;;;;;;;;;;6313539;28;20490;-79
2021/03/07 16:00:50;;;;;;;10.30;9.18;;;;;;;;;;6303841;28;20143;-76
2021/03/07 16:03:52;;;;;;;10.35;8.82;;;;;;;;;;6304136;28;20071;-75
2021/03/07 16:06:54;;;;;;;11.18;8.55;;;;;;;;;;6311579;28;20047;-79
2021/03/07 16:09:55;;;;;;;10.88;9.32;;;;;;;;;;6308588;28;20056;-76
2021/03/07 16:12:57;;;;;;;11.75;8.82;;;;;;;;;;6314556;28;20109;-76
2021/03/07 16:15:58;;;;;;;9.73;8.73;;;;;;;;;;6315231;28;20055;-76
2021/03/07 16:19:00;;;;;;;10.45;9.00;;;;;;;;;;6315091;28;20459;-76
2021/03/07 16:22:01;;;;;;;11.82;9.10;;;;;;;;;;6310921;28;20079;-76
2021/03/07 16:25:04;;;;;;;12.90;8.98;;;;;;;;;;6307218;28;20517;-76
2021/03/07 16:28:06;;;;;;;11.07;8.82;;;;;;;;;;6311258;28;20144;-76
2021/03/07 16:31:07;;;;;;;11.40;9.35;;;;;;;;;;6304889;28;20052;-76
2021/03/07 16:34:09;;;;;;;12.75;8.85;;;;;;;;;;6310310;28;20056;-75
2021/03/07 16:37:11;;;;;;;12.45;9.00;;;;;;;;;;6311862;28;20075;-76
2021/03/07 16:40:12;;;;;;;10.32;8.98;;;;;;;;;;6312403;28;20145;-75
2021/03/07 16:43:13;;;;;;;11.75;9.60;;;;;;;;;;6305563;28;20048;-76
2021/03/07 16:46:14;;;;;;;12.25;9.63;;;;;;;;;;6306408;28;20498;-76
2021/03/07 16:49:16;;;;;;;13.85;8.45;;;;;;;;;;6304764;28;20441;-75
2021/03/07 16:52:18;;;;;;;11.55;9.10;;;;;;;;;;6305480;28;20496;-76
2021/03/07 16:55:19;;;;;;;14.13;8.88;;;;;;;;;;6312143;28;20122;-75
2021/03/07 16:58:20;;;;;;;12.70;9.50;;;;;;;;;;6310665;28;20044;-75
2021/03/07 17:01:21;;;;;;;10.77;8.55;;;;;;;;;;6312748;28;20093;-75
2021/03/07 17:04:23;;;;;;;13.65;9.10;;;;;;;;;;6314466;28;20138;-75
2021/03/07 17:07:24;;;;;;;12.00;9.25;;;;;;;;;;6316540;28;20052;-75
2021/03/07 17:10:25;;;;;;;11.57;8.70;;;;;;;;;;6317038;28;20506;-75
2021/03/07 17:13:26;;;;;;;11.50;8.88;;;;;;;;;;6318379;28;20135;-75
2021/03/07 17:16:27;;;;;;;14.57;9.07;;;;;;;;;;6311942;28;20753;-75
2021/03/07 17:19:29;;;;;;;12.18;8.82;;;;;;;;;;6313959;28;20139;-75
2021/03/07 17:22:31;;;;;;;10.77;8.52;;;;;;;;;;6310889;28;20079;-75
2021/03/07 17:25:33;;;;;;;14.43;9.60;;;;;;;;;;6324237;28;20047;-74
2021/03/07 17:28:35;;;;;;;12.77;9.05;;;;;;;;;;6322997;28;20112;-76
2021/03/07 17:31:36;;;;;;;12.15;9.30;;;;;;;;;;6322032;28;20066;-75
2021/03/07 17:34:38;;;;;;;11.52;9.60;;;;;;;;;;6300129;28;20383;-75
2021/03/07 17:37:39;;;;;;;13.43;9.85;;;;;;;;;;6316477;28;20039;-75
2021/03/07 17:40:40;;;;;;;15.18;10.15;;;;;;;;;;6312035;28;20708;-75
2021/03/07 17:43:42;;;;;;;12.50;9.77;;;;;;;;;;6317633;28;20131;-75
2021/03/07 17:46:43;;;;;;;15.77;9.48;;;;;;;;;;6325339;28;20043;-75
2021/03/07 17:49:45;;;;;;;13.40;9.93;;;;;;;;;;6333783;28;20048;-75
2021/03/07 17:52:53;;;;;;;12.25;10.00;;;;;;;;;;6328200;28;20052;-75
2021/03/07 17:55:54;;;;;;;17.25;10.18;;;;;;;;;;6328256;28;20048;-75
2021/03/07 17:58:57;;;;;;;13.68;9.25;;;;;;;;;;6330250;28;20051;-74
2021/03/07 18:02:01;;;;;;;15.48;9.82;;;;;;;;;;6327253;28;20051;-77
2021/03/07 18:05:05;;;;;;;16.05;10.85;;;;;;;;;;6329111;28;20040;-75
2021/03/07 18:08:08;;;;;;;17.58;11.63;;;;;;;;;;6314063;28;20044;-74
2021/03/07 18:11:10;;;;;;;13.38;9.75;;;;;;;;;;6301436;28;20044;-75
2021/03/07 18:14:11;;;;;;;12.40;10.43;;;;;;;;;;6307587;28;20052;-75
2021/03/07 18:17:13;;;;;;;14.30;10.13;;;;;;;;;;6331609;28;20048;-75
2021/03/07 18:20:16;;;;;;;13.40;10.02;;;;;;;;;;6330325;28;20052;-77
2021/03/07 18:23:17;;;;;;;14.27;10.90;;;;;;;;;;6334629;28;20037;-74
2021/03/07 18:26:19;;;;;;;13.75;10.07;;;;;;;;;;6328692;28;20048;-74
2021/03/07 18:29:21;;;;;;;12.25;10.38;;;;;;;;;;6331318;28;20056;-75
2021/03/07 18:32:22;;;;;;;14.13;10.05;;;;;;;;;;6330009;28;20051;-75
2021/03/07 18:35:32;;;;;;;13.55;10.40;;;;;;;;;;6321972;28;20040;-75
2021/03/07 18:38:56;;;;;;;12.73;10.60;;;;;;;;;;6323454;28;20051;-75
2021/03/07 18:42:00;;;;;;;15.82;10.57;;;;;;;;;;6305401;28;20048;-75
2021/03/07 18:45:14;;;;;;;14.38;10.85;;;;;;;;;;6323725;28;20048;-75
2021/03/07 18:48:19;;;;;;;;;;;;;;;;;;6332159;28;20044;-75
2021/03/07 18:51:34;;;;;;;;;;;;;;;;;;;;;
2021/03/07 18:54:35;;;;;;;17.20;11.70;;;;;;;;;;6317370;28;20102;-75
2021/03/07 18:57:37;;;;;;;15.65;10.77;;;;;;;;;;6329459;28;20129;-75
2021/03/07 19:00:39;;;;;;;15.80;10.93;;;;;;;;;;6328680;28;20059;-75
2021/03/07 19:03:44;;;;;;;17.05;11.50;;;;;;;;;;6328031;28;20064;-75
2021/03/07 19:06:47;;;;;;;17.83;11.88;;;;;;;;;;6330071;28;20078;-75
2021/03/07 19:09:48;;;;;;;14.32;11.30;;;;;;;;;;6328429;28;20156;-75
2021/03/07 19:12:52;;;;;;;15.13;11.15;;;;;;;;;;6321465;28;20048;-75
2021/03/07 19:23:01;;;;;;;16.25;11.40;;;;;;;;;;6308410;28;20068;-75
2021/03/07 19:26:02;;;;;;;17.48;11.02;;;;;;;;;;6320319;28;20135;-75
2021/03/07 19:29:04;;;;;;;16.65;11.02;;;;;;;;;;6329111;28;20048;-75
2021/03/07 19:32:11;;;;;;;15.48;10.85;;;;;;;;;;6331889;28;20052;-75
2021/03/07 19:35:13;;;;;;;15.07;11.02;;;;;;;;;;6334494;28;20335;-75
2021/03/07 19:38:16;;;;;;;15.32;11.30;;;;;;;;;;6332696;28;20060;-75
2021/03/07 19:41:31;;;;;;;16.38;10.65;;;;;;;;;;6320233;28;20048;-74
2021/03/07 19:44:33;;;;;;;16.65;10.50;;;;;;;;;;6332574;28;20069;-75
2021/03/07 19:48:12;;;;;;;14.73;10.75;;;;;;;;;;6336759;28;20055;-74
2021/03/07 19:51:31;;;;;;;14.13;10.57;;;;;;;;;;6313220;28;20098;-74
2021/03/07 19:54:36;;;;;;;13.93;10.57;;;;;;;;;;6316205;28;20045;-74
2021/03/07 19:57:43;;;;;;;13.52;10.43;;;;;;;;;;6333963;28;20050;-74
2021/03/07 20:04:29;;;;;;;16.08;11.07;;;;;;;;;;6322046;28;20044;-74
2021/03/07 20:07:31;;;;;;;17.80;10.82;;;;;;;;;;6337299;28;20056;-74
2021/03/07 20:10:39;;;;;;;16.63;11.15;;;;;;;;;;6326403;28;20061;-75
2021/03/07 20:13:58;;;;;;;;;;;;;;;;;;;;;
2021/03/07 20:17:05;;;;;;;12.75;10.02;;;;;;;;;;6313946;28;20048;-75
2021/03/07 20:20:07;;;;;;;12.95;10.73;;;;;;;;;;6332016;28;20048;-74
2021/03/07 20:23:11;;;;;;;15.95;11.13;;;;;;;;;;6329421;28;20066;-75
2021/03/07 20:26:34;;;;;;;16.38;10.57;;;;;;;;;;6328763;28;20155;-74
2021/03/07 20:29:36;;;;;;;13.52;11.27;;;;;;;;;;6335896;28;20100;-76
2021/03/07 20:32:37;;;;;;;18.10;11.70;;;;;;;;;;6330603;28;20047;-74
2021/03/07 20:35:38;;;;;;;16.95;11.52;;;;;;;;;;6322136;28;20479;-74
2021/03/07 20:38:40;;;;;;;13.60;10.80;;;;;;;;;;6331831;28;20044;-74
2021/03/07 20:41:42;;;;;;;18.25;11.73;;;;;;;;;;6335132;28;20126;-75